Terminal Aerodrome Forecast
Issued by NWS

Home | Current Version | Previous Version | Text Only | Print | Product List | Glossary On
Versions: 1 2 3 4 5 6 7 8 9 10 11 12 13 14 15 16
000
FTUS44 KLIX 250520
TAFMSY
TAF
KMSY 250520Z 2506/2606 14006KT P6SM VCTS SCT025CB BKN130 OVC160
      TEMPO 2507/2509 VRB15G25KT 3SM TSRA SCT020CB BKN040
     FM251200 14010KT P6SM SHRA SCT020 OVC035
     FM251400 14011KT P6SM SHRA OVC025
     FM251700 14013KT P6SM SHRA OVC035=

USA.gov is the U.S. government's official web portal to all federal, state and local government web resources and services.